createdAt,value
2023-01-27T00:01:18.865Z,34.88
2023-01-27T00:06:26.769Z,35.90
2023-01-27T00:11:50.818Z,36.10
2023-01-27T00:16:57.463Z,34.55
2023-01-27T00:22:24.374Z,34.55
2023-01-27T00:27:30.607Z,38.60
2023-01-27T00:32:56.839Z,34.70
2023-01-27T00:38:04.975Z,36.65
2023-01-27T00:43:13.597Z,30.15
2023-01-27T00:48:20.164Z,34.15
2023-01-27T00:53:28.214Z,34.47
2023-01-27T00:58:35.972Z,28.63
2023-01-27T01:03:44.840Z,42.80
2023-01-27T01:08:52.899Z,28.40
2023-01-27T01:14:00.260Z,28.27
2023-01-27T01:19:06.846Z,32.72
2023-01-27T01:24:16.583Z,34.17
2023-01-27T01:29:23.193Z,35.80
2023-01-27T01:34:29.846Z,38.95
2023-01-27T01:39:37.986Z,33.88
2023-01-27T01:44:47.157Z,37.30
2023-01-27T01:49:53.632Z,31.50
2023-01-27T01:55:01.689Z,36.63
2023-01-27T02:00:12.279Z,31.75
2023-01-27T02:05:29.321Z,38.83
2023-01-27T02:10:38.290Z,32.13
2023-01-27T02:15:44.749Z,37.67
2023-01-27T02:20:54.709Z,34.47
2023-01-27T02:26:10.541Z,36.00
2023-01-27T02:31:18.389Z,47.17
2023-01-27T02:36:25.530Z,35.55
2023-01-27T02:41:39.134Z,32.13
2023-01-27T02:46:45.824Z,34.30
2023-01-27T02:51:52.472Z,38.33
2023-01-27T02:57:00.496Z,37.83
2023-01-27T03:02:08.976Z,36.28
2023-01-27T03:07:15.242Z,39.00
2023-01-27T03:12:22.898Z,39.45
2023-01-27T03:17:48.825Z,36.75
2023-01-27T03:22:55.227Z,39.55
2023-01-27T03:28:06.092Z,40.25
2023-01-27T03:33:31.340Z,40.90
2023-01-27T03:38:59.807Z,43.80
2023-01-27T03:44:26.211Z,37.10
2023-01-27T03:49:32.414Z,43.38
2023-01-27T03:54:39.200Z,39.20
2023-01-27T03:59:47.340Z,37.95
2023-01-27T04:05:11.672Z,42.53
2023-01-27T04:10:18.856Z,41.28
2023-01-27T04:15:26.858Z,52.33
2023-01-27T04:20:33.262Z,40.60
2023-01-27T04:25:40.604Z,42.00
2023-01-27T04:30:50.189Z,52.38
2023-01-27T04:36:00.666Z,49.45
2023-01-27T04:41:07.523Z,47.83
2023-01-27T04:46:15.249Z,54.75
2023-01-27T04:51:24.546Z,53.15
2023-01-27T04:56:33.756Z,50.92
2023-01-27T05:01:41.753Z,51.22
2023-01-27T05:06:48.211Z,54.63
2023-01-27T05:11:54.377Z,57.40
2023-01-27T05:17:02.419Z,67.13
2023-01-27T05:22:09.586Z,64.63
2023-01-27T05:27:16.056Z,54.88
2023-01-27T05:32:23.856Z,51.42
2023-01-27T05:37:30.245Z,53.13
2023-01-27T05:42:38.382Z,46.63
2023-01-27T05:47:49.934Z,55.47
2023-01-27T05:52:57.048Z,53.10
2023-01-27T05:58:04.291Z,51.45
2023-01-27T06:03:12.366Z,49.28
2023-01-27T06:08:19.008Z,48.88
2023-01-27T06:13:28.014Z,50.75
2023-01-27T06:18:36.073Z,54.70
2023-01-27T06:23:43.383Z,33.60
2023-01-27T06:28:50.280Z,53.08
2023-01-27T06:33:59.516Z,49.65
2023-01-27T06:39:06.165Z,61.13
2023-01-27T06:44:12.708Z,58.47
2023-01-27T06:49:20.663Z,60.00
2023-01-27T06:54:27.279Z,62.53
2023-01-27T06:59:33.849Z,77.97
2023-01-27T07:04:41.619Z,59.80
2023-01-27T07:09:52.693Z,78.47
2023-01-27T07:14:59.562Z,67.80
2023-01-27T07:20:10.127Z,59.17
2023-01-27T07:25:16.662Z,59.95
2023-01-27T07:30:23.393Z,55.10
2023-01-27T07:35:31.224Z,53.83
2023-01-27T07:54:43.621Z,48.55
2023-01-27T07:59:53.969Z,52.63
2023-01-27T08:05:00.207Z,51.13
2023-01-27T08:10:08.697Z,53.92
2023-01-27T08:15:18.425Z,57.95
2023-01-27T08:20:29.269Z,52.80
2023-01-27T08:25:37.249Z,63.65
2023-01-27T08:30:43.816Z,60.50
2023-01-27T08:35:51.245Z,52.28
2023-01-27T08:41:00.242Z,60.90
2023-01-27T08:46:07.471Z,50.97
2023-01-27T08:51:15.884Z,59.90
2023-01-27T08:56:24.324Z,56.85
2023-01-27T09:01:30.749Z,51.75
2023-01-27T09:06:37.427Z,49.95
2023-01-27T09:11:47.678Z,50.67
2023-01-27T09:16:54.190Z,48.72
2023-01-27T09:22:00.695Z,57.40
2023-01-27T09:27:08.803Z,54.85
2023-01-27T09:32:15.536Z,52.10
2023-01-27T09:37:22.176Z,56.45
2023-01-27T09:42:54.747Z,54.83
2023-01-27T09:48:26.355Z,57.25
2023-01-27T09:54:09.538Z,56.40
2023-01-27T09:59:40.458Z,58.33
2023-01-27T10:05:21.693Z,47.50
2023-01-27T10:10:51.128Z,53.80
2023-01-27T10:16:23.601Z,57.85
2023-01-27T10:21:46.155Z,56.03
2023-01-27T10:26:57.415Z,61.55
2023-01-27T10:32:10.778Z,51.38
2023-01-27T10:37:31.142Z,52.33
2023-01-27T10:42:46.919Z,49.35
2023-01-27T10:48:17.321Z,52.75
2023-01-27T10:53:33.897Z,44.97
2023-01-27T10:58:51.525Z,49.75
2023-01-27T11:04:05.749Z,52.17
2023-01-27T11:09:26.451Z,53.08
2023-01-27T11:14:39.546Z,49.00
2023-01-27T11:19:58.531Z,53.55
2023-01-27T11:30:29.870Z,53.33
2023-01-27T11:35:38.015Z,48.78
2023-01-27T11:40:46.948Z,48.83
2023-01-27T12:03:13.045Z,47.60
2023-01-27T12:08:42.048Z,53.72
2023-01-27T12:13:55.508Z,63.33
2023-01-27T12:19:07.119Z,53.80
2023-01-27T12:24:28.292Z,59.33
2023-01-27T12:29:44.546Z,50.85
2023-01-27T12:34:59.056Z,58.03
2023-01-27T12:40:09.232Z,59.50
2023-01-27T12:45:26.844Z,65.63
2023-01-27T12:50:38.475Z,70.80
2023-01-27T12:55:51.308Z,68.20
2023-01-27T13:00:58.380Z,72.75
2023-01-27T13:06:07.466Z,66.15
2023-01-27T13:11:15.865Z,69.15
2023-01-27T13:16:30.101Z,72.28
2023-01-27T13:21:41.151Z,76.93
2023-01-27T13:26:48.844Z,68.72
2023-01-27T13:32:00.324Z,77.55
2023-01-27T13:37:16.604Z,66.68
2023-01-27T13:42:31.963Z,74.80
2023-01-27T13:47:50.718Z,68.18
2023-01-27T13:53:01.433Z,61.95
2023-01-27T13:58:13.551Z,65.30
2023-01-27T14:03:48.176Z,53.85
2023-01-27T14:09:13.129Z,58.70
2023-01-27T14:14:43.655Z,74.70
2023-01-27T14:20:25.112Z,67.55
2023-01-27T14:25:42.092Z,52.30
2023-01-27T14:30:57.291Z,52.15
2023-01-27T14:36:18.736Z,49.92
2023-01-27T14:41:35.889Z,49.13
2023-01-27T14:47:08.824Z,47.08
2023-01-27T14:52:32.353Z,50.35
2023-01-27T14:57:49.400Z,48.08
2023-01-27T15:03:11.105Z,41.97
2023-01-27T15:08:28.558Z,45.13
2023-01-27T15:13:56.499Z,39.88
2023-01-27T15:19:39.515Z,32.63
2023-01-27T15:25:05.911Z,30.23
2023-01-27T15:30:26.958Z,31.45
2023-01-27T15:35:38.353Z,30.98
2023-01-27T15:41:13.273Z,30.95
2023-01-27T15:46:32.629Z,43.25
2023-01-27T15:51:40.191Z,28.13
2023-01-27T15:56:53.888Z,33.10
2023-01-27T16:02:17.427Z,30.77
2023-01-27T16:07:32.670Z,29.27
2023-01-27T16:12:45.345Z,31.50
2023-01-27T16:18:29.292Z,23.88
2023-01-27T16:23:50.687Z,26.67
2023-01-27T16:29:25.682Z,22.98
2023-01-27T16:34:41.717Z,23.98
2023-01-27T16:39:55.460Z,23.23
2023-01-27T16:45:10.249Z,23.95
2023-01-27T16:50:42.043Z,27.83
2023-01-27T16:56:00.474Z,26.30
2023-01-27T17:01:07.920Z,24.03
2023-01-27T17:06:19.073Z,29.73
2023-01-27T17:11:34.381Z,27.58
2023-01-27T17:16:45.188Z,32.08
2023-01-27T17:21:59.071Z,34.63
2023-01-27T17:27:11.923Z,34.20
2023-01-27T17:32:24.872Z,30.52
2023-01-27T17:37:35.401Z,26.67
2023-01-27T17:42:43.014Z,32.53
2023-01-27T17:47:50.731Z,31.48
2023-01-27T17:53:00.837Z,37.05
2023-01-27T17:58:12.523Z,42.58
2023-01-27T18:03:25.847Z,37.10
2023-01-27T18:08:39.069Z,32.28
2023-01-27T18:13:49.467Z,28.10
2023-01-27T18:19:10.670Z,31.98
2023-01-27T18:24:23.784Z,29.45
2023-01-27T18:29:39.500Z,30.88
2023-01-27T18:34:56.613Z,38.50
2023-01-27T19:12:19.100Z,27.35
2023-01-27T19:17:30.332Z,34.33
2023-01-27T19:22:41.604Z,39.67
2023-01-27T19:27:58.298Z,32.38
2023-01-27T19:33:22.430Z,45.72
2023-01-27T19:38:31.979Z,57.30
2023-01-27T19:43:42.516Z,61.33
2023-01-27T19:48:52.871Z,62.17
2023-01-27T19:54:01.370Z,41.55
2023-01-27T19:59:15.899Z,29.38
2023-01-27T20:04:24.977Z,27.70
2023-01-27T20:09:33.732Z,26.60
2023-01-27T20:14:44.308Z,31.40
2023-01-27T20:19:54.864Z,32.42
2023-01-27T20:25:16.845Z,33.50
2023-01-27T20:31:04.802Z,31.58
2023-01-27T20:36:53.278Z,30.90
2023-01-27T20:42:14.842Z,35.60
2023-01-27T20:48:28.553Z,34.97
2023-01-27T20:54:11.581Z,35.53
2023-01-27T21:00:13.351Z,34.63
2023-01-27T21:05:59.749Z,38.60
2023-01-27T21:11:30.773Z,36.22
2023-01-27T21:29:09.810Z,23.67
2023-01-27T21:35:16.809Z,20.40
2023-01-27T21:48:05.082Z,16.70
2023-01-27T21:54:03.015Z,19.85
2023-01-27T22:00:34.676Z,15.45
2023-01-27T22:12:37.343Z,14.80
2023-01-27T22:17:58.366Z,13.50
2023-01-27T22:24:07.482Z,22.13
2023-01-27T22:30:06.559Z,20.90
2023-01-27T22:35:46.000Z,18.48
2023-01-27T22:41:38.055Z,18.67
2023-01-27T22:47:56.135Z,21.02
2023-01-27T22:53:31.016Z,17.92
2023-01-27T22:58:50.243Z,19.15
2023-01-27T23:04:42.683Z,16.40
2023-01-27T23:09:58.247Z,17.42
2023-01-27T23:15:57.432Z,19.02
2023-01-27T23:21:41.292Z,20.33
2023-01-27T23:26:59.560Z,15.07
2023-01-27T23:32:09.300Z,21.48
2023-01-27T23:37:18.217Z,18.35
2023-01-27T23:42:28.914Z,18.88
2023-01-27T23:48:11.904Z,16.42
2023-01-27T23:53:26.415Z,12.83
2023-01-27T23:58:45.986Z,14.45
